sensor_id;sensor_type;location;lat;lon;timestamp;P1;durP1;ratioP1;P2;durP2;ratioP2
70416;SDS011;57839;51.332;12.410;2023-12-20T00:00:58;306.50;;;287.85;;
70416;SDS011;57839;51.332;12.410;2023-12-20T00:03:23;319.35;;;299.35;;
70416;SDS011;57839;51.332;12.410;2023-12-20T00:05:49;330.38;;;309.60;;
70416;SDS011;57839;51.332;12.410;2023-12-20T00:08:15;329.58;;;309.33;;
70416;SDS011;57839;51.332;12.410;2023-12-20T00:10:42;298.70;;;282.33;;
70416;SDS011;57839;51.332;12.410;2023-12-20T00:13:09;312.50;;;293.88;;
70416;SDS011;57839;51.332;12.410;2023-12-20T00:15:35;350.67;;;328.83;;
70416;SDS011;57839;51.332;12.410;2023-12-20T00:18:01;365.98;;;344.55;;
70416;SDS011;57839;51.332;12.410;2023-12-20T00:20:27;272.73;;;256.58;;
70416;SDS011;57839;51.332;12.410;2023-12-20T00:22:54;285.02;;;268.02;;
70416;SDS011;57839;51.332;12.410;2023-12-20T00:25:21;261.77;;;246.07;;
70416;SDS011;57839;51.332;12.410;2023-12-20T00:27:47;317.30;;;298.30;;
70416;SDS011;57839;51.332;12.410;2023-12-20T00:30:13;321.35;;;301.90;;
70416;SDS011;57839;51.332;12.410;2023-12-20T00:32:38;245.68;;;231.75;;
70416;SDS011;57839;51.332;12.410;2023-12-20T00:35:04;281.38;;;264.23;;
70416;SDS011;57839;51.332;12.410;2023-12-20T00:37:30;341.42;;;321.23;;
70416;SDS011;57839;51.332;12.410;2023-12-20T00:39:55;308.13;;;291.08;;
70416;SDS011;57839;51.332;12.410;2023-12-20T00:42:21;358.88;;;337.98;;
70416;SDS011;57839;51.332;12.410;2023-12-20T00:44:47;313.38;;;294.45;;
70416;SDS011;57839;51.332;12.410;2023-12-20T00:47:13;323.48;;;305.17;;
70416;SDS011;57839;51.332;12.410;2023-12-20T00:49:38;306.08;;;287.75;;
70416;SDS011;57839;51.332;12.410;2023-12-20T00:52:04;309.95;;;291.80;;
70416;SDS011;57839;51.332;12.410;2023-12-20T00:54:30;212.77;;;201.02;;
70416;SDS011;57839;51.332;12.410;2023-12-20T00:56:56;302.67;;;284.63;;
70416;SDS011;57839;51.332;12.410;2023-12-20T00:59:21;279.38;;;263.63;;
70416;SDS011;57839;51.332;12.410;2023-12-20T01:01:47;351.27;;;329.40;;
70416;SDS011;57839;51.332;12.410;2023-12-20T01:04:13;326.52;;;306.98;;
70416;SDS011;57839;51.332;12.410;2023-12-20T01:06:38;313.77;;;295.33;;
70416;SDS011;57839;51.332;12.410;2023-12-20T01:09:04;310.00;;;291.50;;
70416;SDS011;57839;51.332;12.410;2023-12-20T01:11:30;338.30;;;318.77;;
70416;SDS011;57839;51.332;12.410;2023-12-20T01:13:55;297.15;;;280.60;;
70416;SDS011;57839;51.332;12.410;2023-12-20T01:16:21;294.02;;;277.40;;
70416;SDS011;57839;51.332;12.410;2023-12-20T01:18:47;322.17;;;302.55;;
70416;SDS011;57839;51.332;12.410;2023-12-20T01:21:12;378.33;;;354.45;;
70416;SDS011;57839;51.332;12.410;2023-12-20T01:23:38;333.10;;;313.58;;
70416;SDS011;57839;51.332;12.410;2023-12-20T01:26:04;327.90;;;308.13;;
70416;SDS011;57839;51.332;12.410;2023-12-20T01:28:30;316.52;;;297.20;;
70416;SDS011;57839;51.332;12.410;2023-12-20T01:30:57;267.30;;;252.00;;
70416;SDS011;57839;51.332;12.410;2023-12-20T01:33:22;276.77;;;260.73;;
70416;SDS011;57839;51.332;12.410;2023-12-20T01:35:48;372.23;;;350.25;;
70416;SDS011;57839;51.332;12.410;2023-12-20T01:38:14;298.60;;;281.48;;
70416;SDS011;57839;51.332;12.410;2023-12-20T01:40:43;354.17;;;333.42;;
70416;SDS011;57839;51.332;12.410;2023-12-20T01:43:09;260.58;;;245.63;;
70416;SDS011;57839;51.332;12.410;2023-12-20T01:45:37;310.40;;;292.25;;
70416;SDS011;57839;51.332;12.410;2023-12-20T01:48:03;346.67;;;326.35;;
70416;SDS011;57839;51.332;12.410;2023-12-20T01:50:31;271.52;;;255.48;;
70416;SDS011;57839;51.332;12.410;2023-12-20T01:52:58;304.05;;;285.80;;
70416;SDS011;57839;51.332;12.410;2023-12-20T01:55:27;325.92;;;307.23;;
70416;SDS011;57839;51.332;12.410;2023-12-20T01:57:55;283.88;;;267.05;;
70416;SDS011;57839;51.332;12.410;2023-12-20T02:00:22;383.65;;;360.95;;
70416;SDS011;57839;51.332;12.410;2023-12-20T02:02:49;339.00;;;318.85;;
70416;SDS011;57839;51.332;12.410;2023-12-20T02:05:18;371.13;;;348.70;;
70416;SDS011;57839;51.332;12.410;2023-12-20T02:07:43;327.92;;;308.30;;
70416;SDS011;57839;51.332;12.410;2023-12-20T02:10:09;305.13;;;287.63;;
70416;SDS011;57839;51.332;12.410;2023-12-20T02:12:35;348.88;;;328.90;;
70416;SDS011;57839;51.332;12.410;2023-12-20T02:15:01;331.38;;;312.85;;
70416;SDS011;57839;51.332;12.410;2023-12-20T02:17:27;325.55;;;306.05;;
70416;SDS011;57839;51.332;12.410;2023-12-20T02:19:53;271.23;;;255.23;;
70416;SDS011;57839;51.332;12.410;2023-12-20T02:22:18;342.55;;;323.38;;
70416;SDS011;57839;51.332;12.410;2023-12-20T02:24:44;333.50;;;314.35;;
70416;SDS011;57839;51.332;12.410;2023-12-20T02:27:10;285.05;;;269.45;;
70416;SDS011;57839;51.332;12.410;2023-12-20T02:29:36;397.52;;;374.58;;
70416;SDS011;57839;51.332;12.410;2023-12-20T02:32:02;256.80;;;242.85;;
70416;SDS011;57839;51.332;12.410;2023-12-20T02:34:28;255.85;;;241.23;;
70416;SDS011;57839;51.332;12.410;2023-12-20T02:36:54;294.23;;;276.98;;
70416;SDS011;57839;51.332;12.410;2023-12-20T02:39:20;337.73;;;317.77;;
70416;SDS011;57839;51.332;12.410;2023-12-20T02:41:47;347.55;;;327.98;;
70416;SDS011;57839;51.332;12.410;2023-12-20T02:44:14;331.88;;;313.45;;
70416;SDS011;57839;51.332;12.410;2023-12-20T02:46:39;307.92;;;289.67;;
70416;SDS011;57839;51.332;12.410;2023-12-20T02:49:06;322.13;;;303.75;;
70416;SDS011;57839;51.332;12.410;2023-12-20T02:51:32;340.35;;;320.02;;
70416;SDS011;57839;51.332;12.410;2023-12-20T02:53:57;311.30;;;293.48;;
70416;SDS011;57839;51.332;12.410;2023-12-20T02:56:23;268.58;;;253.73;;
70416;SDS011;57839;51.332;12.410;2023-12-20T02:58:49;360.65;;;338.55;;
70416;SDS011;57839;51.332;12.410;2023-12-20T03:01:14;325.27;;;306.20;;
70416;SDS011;57839;51.332;12.410;2023-12-20T03:03:40;355.17;;;335.55;;
70416;SDS011;57839;51.332;12.410;2023-12-20T03:06:05;340.98;;;321.13;;
70416;SDS011;57839;51.332;12.410;2023-12-20T03:08:31;271.77;;;256.77;;
70416;SDS011;57839;51.332;12.410;2023-12-20T03:10:59;326.02;;;307.02;;
70416;SDS011;57839;51.332;12.410;2023-12-20T03:13:24;421.52;;;394.58;;
70416;SDS011;57839;51.332;12.410;2023-12-20T03:15:50;325.75;;;307.27;;
70416;SDS011;57839;51.332;12.410;2023-12-20T03:18:16;285.08;;;268.80;;
70416;SDS011;57839;51.332;12.410;2023-12-20T03:20:43;337.05;;;316.58;;
70416;SDS011;57839;51.332;12.410;2023-12-20T03:23:09;303.90;;;287.30;;
70416;SDS011;57839;51.332;12.410;2023-12-20T03:25:35;306.08;;;289.08;;
70416;SDS011;57839;51.332;12.410;2023-12-20T03:28:00;350.67;;;331.70;;
70416;SDS011;57839;51.332;12.410;2023-12-20T03:30:26;345.48;;;325.23;;
70416;SDS011;57839;51.332;12.410;2023-12-20T03:32:52;312.83;;;295.52;;
70416;SDS011;57839;51.332;12.410;2023-12-20T03:35:17;287.17;;;271.65;;
70416;SDS011;57839;51.332;12.410;2023-12-20T03:37:43;334.17;;;315.65;;
70416;SDS011;57839;51.332;12.410;2023-12-20T03:40:09;331.23;;;311.95;;
70416;SDS011;57839;51.332;12.410;2023-12-20T03:42:35;388.05;;;364.35;;
70416;SDS011;57839;51.332;12.410;2023-12-20T03:45:00;279.42;;;263.83;;
70416;SDS011;57839;51.332;12.410;2023-12-20T03:47:26;343.00;;;322.67;;
70416;SDS011;57839;51.332;12.410;2023-12-20T03:49:52;294.60;;;278.13;;
70416;SDS011;57839;51.332;12.410;2023-12-20T03:52:18;331.48;;;312.65;;
70416;SDS011;57839;51.332;12.410;2023-12-20T03:54:44;378.85;;;348.33;;
70416;SDS011;57839;51.332;12.410;2023-12-20T03:57:09;367.98;;;346.13;;
70416;SDS011;57839;51.332;12.410;2023-12-20T03:59:36;278.98;;;262.40;;
70416;SDS011;57839;51.332;12.410;2023-12-20T04:02:02;337.08;;;317.70;;
70416;SDS011;57839;51.332;12.410;2023-12-20T04:04:29;339.65;;;320.08;;
70416;SDS011;57839;51.332;12.410;2023-12-20T04:06:55;361.20;;;339.98;;
70416;SDS011;57839;51.332;12.410;2023-12-20T04:09:20;359.50;;;335.42;;
70416;SDS011;57839;51.332;12.410;2023-12-20T04:11:46;364.35;;;344.42;;
70416;SDS011;57839;51.332;12.410;2023-12-20T04:14:12;336.23;;;315.92;;
70416;SDS011;57839;51.332;12.410;2023-12-20T04:16:38;381.27;;;358.42;;
70416;SDS011;57839;51.332;12.410;2023-12-20T04:19:04;321.77;;;302.80;;
70416;SDS011;57839;51.332;12.410;2023-12-20T04:21:30;368.67;;;347.55;;
70416;SDS011;57839;51.332;12.410;2023-12-20T04:23:56;314.75;;;296.60;;
70416;SDS011;57839;51.332;12.410;2023-12-20T04:26:21;318.80;;;299.58;;
70416;SDS011;57839;51.332;12.410;2023-12-20T04:28:47;276.30;;;259.85;;
70416;SDS011;57839;51.332;12.410;2023-12-20T04:31:13;315.45;;;296.17;;
70416;SDS011;57839;51.332;12.410;2023-12-20T04:33:39;261.88;;;247.27;;
70416;SDS011;57839;51.332;12.410;2023-12-20T04:36:04;280.80;;;263.83;;
70416;SDS011;57839;51.332;12.410;2023-12-20T04:38:30;338.33;;;317.27;;
70416;SDS011;57839;51.332;12.410;2023-12-20T04:40:56;310.98;;;292.08;;
70416;SDS011;57839;51.332;12.410;2023-12-20T04:43:22;222.07;;;209.75;;
70416;SDS011;57839;51.332;12.410;2023-12-20T04:45:47;252.90;;;238.45;;
70416;SDS011;57839;51.332;12.410;2023-12-20T04:48:13;247.70;;;233.80;;
70416;SDS011;57839;51.332;12.410;2023-12-20T04:50:39;280.67;;;265.15;;
70416;SDS011;57839;51.332;12.410;2023-12-20T04:53:04;280.73;;;263.88;;
70416;SDS011;57839;51.332;12.410;2023-12-20T04:55:30;288.35;;;271.13;;
70416;SDS011;57839;51.332;12.410;2023-12-20T04:57:56;268.75;;;253.45;;
70416;SDS011;57839;51.332;12.410;2023-12-20T05:00:21;258.10;;;242.82;;
70416;SDS011;57839;51.332;12.410;2023-12-20T05:02:47;248.07;;;234.13;;
70416;SDS011;57839;51.332;12.410;2023-12-20T05:05:13;339.00;;;317.83;;
70416;SDS011;57839;51.332;12.410;2023-12-20T05:07:40;291.27;;;274.55;;
70416;SDS011;57839;51.332;12.410;2023-12-20T05:10:06;340.92;;;321.17;;
70416;SDS011;57839;51.332;12.410;2023-12-20T05:12:35;338.30;;;319.27;;
70416;SDS011;57839;51.332;12.410;2023-12-20T05:15:01;323.92;;;304.38;;
70416;SDS011;57839;51.332;12.410;2023-12-20T05:17:27;276.05;;;259.73;;
70416;SDS011;57839;51.332;12.410;2023-12-20T05:19:52;270.45;;;254.27;;
70416;SDS011;57839;51.332;12.410;2023-12-20T05:22:18;211.85;;;199.75;;
70416;SDS011;57839;51.332;12.410;2023-12-20T05:24:45;251.40;;;237.77;;
70416;SDS011;57839;51.332;12.410;2023-12-20T05:27:11;268.08;;;252.10;;
70416;SDS011;57839;51.332;12.410;2023-12-20T05:29:37;306.67;;;287.88;;
70416;SDS011;57839;51.332;12.410;2023-12-20T05:32:03;264.10;;;248.75;;
70416;SDS011;57839;51.332;12.410;2023-12-20T05:34:30;239.93;;;226.32;;
70416;SDS011;57839;51.332;12.410;2023-12-20T05:36:57;287.80;;;272.40;;
70416;SDS011;57839;51.332;12.410;2023-12-20T05:39:23;261.15;;;246.50;;
70416;SDS011;57839;51.332;12.410;2023-12-20T05:41:49;231.38;;;218.45;;
70416;SDS011;57839;51.332;12.410;2023-12-20T05:44:15;257.90;;;243.30;;
70416;SDS011;57839;51.332;12.410;2023-12-20T05:46:40;215.20;;;203.90;;
70416;SDS011;57839;51.332;12.410;2023-12-20T05:49:06;224.75;;;211.73;;
70416;SDS011;57839;51.332;12.410;2023-12-20T05:51:32;252.52;;;238.48;;
70416;SDS011;57839;51.332;12.410;2023-12-20T05:53:58;235.38;;;220.77;;
70416;SDS011;57839;51.332;12.410;2023-12-20T05:56:24;259.58;;;243.43;;
70416;SDS011;57839;51.332;12.410;2023-12-20T05:58:49;218.48;;;207.02;;
70416;SDS011;57839;51.332;12.410;2023-12-20T06:01:15;210.60;;;199.27;;
70416;SDS011;57839;51.332;12.410;2023-12-20T06:03:44;183.07;;;173.68;;
70416;SDS011;57839;51.332;12.410;2023-12-20T06:06:11;166.35;;;157.38;;
70416;SDS011;57839;51.332;12.410;2023-12-20T06:08:38;209.30;;;197.88;;
70416;SDS011;57839;51.332;12.410;2023-12-20T06:11:04;213.40;;;201.18;;
70416;SDS011;57839;51.332;12.410;2023-12-20T06:13:30;213.55;;;202.93;;
70416;SDS011;57839;51.332;12.410;2023-12-20T06:15:56;241.15;;;227.68;;
70416;SDS011;57839;51.332;12.410;2023-12-20T06:18:22;175.52;;;165.88;;
70416;SDS011;57839;51.332;12.410;2023-12-20T06:20:49;211.63;;;199.85;;
70416;SDS011;57839;51.332;12.410;2023-12-20T06:23:15;178.68;;;168.45;;
70416;SDS011;57839;51.332;12.410;2023-12-20T06:25:41;208.77;;;196.88;;
70416;SDS011;57839;51.332;12.410;2023-12-20T06:28:07;174.07;;;165.07;;
70416;SDS011;57839;51.332;12.410;2023-12-20T06:30:35;144.63;;;136.98;;
70416;SDS011;57839;51.332;12.410;2023-12-20T06:33:01;195.35;;;184.80;;
70416;SDS011;57839;51.332;12.410;2023-12-20T06:35:27;208.57;;;196.75;;
70416;SDS011;57839;51.332;12.410;2023-12-20T06:37:53;152.43;;;144.05;;
70416;SDS011;57839;51.332;12.410;2023-12-20T06:40:19;188.52;;;178.45;;
70416;SDS011;57839;51.332;12.410;2023-12-20T06:42:45;161.23;;;152.68;;
70416;SDS011;57839;51.332;12.410;2023-12-20T06:45:11;171.85;;;162.48;;
70416;SDS011;57839;51.332;12.410;2023-12-20T06:47:37;196.15;;;185.30;;
70416;SDS011;57839;51.332;12.410;2023-12-20T06:50:03;202.90;;;192.38;;
70416;SDS011;57839;51.332;12.410;2023-12-20T06:52:30;180.95;;;170.88;;
70416;SDS011;57839;51.332;12.410;2023-12-20T06:54:55;179.13;;;169.48;;
70416;SDS011;57839;51.332;12.410;2023-12-20T06:57:21;207.13;;;195.32;;
70416;SDS011;57839;51.332;12.410;2023-12-20T06:59:47;181.20;;;172.00;;
70416;SDS011;57839;51.332;12.410;2023-12-20T07:02:13;195.10;;;184.80;;
70416;SDS011;57839;51.332;12.410;2023-12-20T07:04:39;238.27;;;224.73;;
70416;SDS011;57839;51.332;12.410;2023-12-20T07:07:05;229.23;;;216.25;;
70416;SDS011;57839;51.332;12.410;2023-12-20T07:09:32;208.05;;;196.82;;
70416;SDS011;57839;51.332;12.410;2023-12-20T07:11:58;227.70;;;214.82;;
70416;SDS011;57839;51.332;12.410;2023-12-20T07:14:24;186.82;;;176.48;;
70416;SDS011;57839;51.332;12.410;2023-12-20T07:16:50;201.00;;;189.73;;
70416;SDS011;57839;51.332;12.410;2023-12-20T07:19:16;220.82;;;207.95;;
70416;SDS011;57839;51.332;12.410;2023-12-20T07:21:41;171.60;;;162.27;;
70416;SDS011;57839;51.332;12.410;2023-12-20T07:24:07;146.07;;;138.35;;
70416;SDS011;57839;51.332;12.410;2023-12-20T07:26:33;127.45;;;121.30;;
70416;SDS011;57839;51.332;12.410;2023-12-20T07:28:59;133.65;;;126.85;;
70416;SDS011;57839;51.332;12.410;2023-12-20T07:31:25;138.02;;;131.23;;
70416;SDS011;57839;51.332;12.410;2023-12-20T07:33:50;148.43;;;140.43;;
70416;SDS011;57839;51.332;12.410;2023-12-20T07:36:16;144.65;;;137.70;;
70416;SDS011;57839;51.332;12.410;2023-12-20T07:38:42;94.28;;;90.00;;
70416;SDS011;57839;51.332;12.410;2023-12-20T07:41:12;121.57;;;115.82;;
70416;SDS011;57839;51.332;12.410;2023-12-20T07:43:38;129.23;;;122.57;;
70416;SDS011;57839;51.332;12.410;2023-12-20T07:46:05;121.22;;;114.95;;
70416;SDS011;57839;51.332;12.410;2023-12-20T07:48:32;141.52;;;133.85;;
70416;SDS011;57839;51.332;12.410;2023-12-20T07:50:57;85.15;;;81.28;;
70416;SDS011;57839;51.332;12.410;2023-12-20T07:53:23;154.10;;;146.73;;
70416;SDS011;57839;51.332;12.410;2023-12-20T07:55:49;128.10;;;121.85;;
70416;SDS011;57839;51.332;12.410;2023-12-20T07:58:14;104.70;;;99.50;;
70416;SDS011;57839;51.332;12.410;2023-12-20T08:00:40;153.63;;;145.85;;
70416;SDS011;57839;51.332;12.410;2023-12-20T08:03:06;119.55;;;114.07;;
70416;SDS011;57839;51.332;12.410;2023-12-20T08:05:32;113.72;;;108.47;;
70416;SDS011;57839;51.332;12.410;2023-12-20T08:07:58;101.78;;;96.95;;
70416;SDS011;57839;51.332;12.410;2023-12-20T08:10:23;131.48;;;125.32;;
70416;SDS011;57839;51.332;12.410;2023-12-20T08:12:49;93.03;;;88.88;;
70416;SDS011;57839;51.332;12.410;2023-12-20T08:15:15;98.78;;;93.97;;
70416;SDS011;57839;51.332;12.410;2023-12-20T08:17:41;133.20;;;127.13;;
70416;SDS011;57839;51.332;12.410;2023-12-20T08:20:07;89.63;;;85.38;;
70416;SDS011;57839;51.332;12.410;2023-12-20T08:22:33;102.50;;;97.53;;
70416;SDS011;57839;51.332;12.410;2023-12-20T08:24:59;106.80;;;101.95;;
70416;SDS011;57839;51.332;12.410;2023-12-20T08:27:25;131.07;;;124.60;;
70416;SDS011;57839;51.332;12.410;2023-12-20T08:29:51;102.97;;;98.07;;
70416;SDS011;57839;51.332;12.410;2023-12-20T08:32:16;82.63;;;78.97;;
70416;SDS011;57839;51.332;12.410;2023-12-20T08:34:42;123.63;;;117.72;;
70416;SDS011;57839;51.332;12.410;2023-12-20T08:37:08;109.65;;;104.05;;
70416;SDS011;57839;51.332;12.410;2023-12-20T08:39:34;121.22;;;115.35;;
70416;SDS011;57839;51.332;12.410;2023-12-20T08:41:59;112.38;;;106.93;;
70416;SDS011;57839;51.332;12.410;2023-12-20T08:44:25;89.57;;;85.45;;
70416;SDS011;57839;51.332;12.410;2023-12-20T08:46:51;103.68;;;98.95;;
70416;SDS011;57839;51.332;12.410;2023-12-20T08:49:16;89.72;;;85.82;;
70416;SDS011;57839;51.332;12.410;2023-12-20T08:51:42;104.43;;;99.60;;
70416;SDS011;57839;51.332;12.410;2023-12-20T08:54:09;107.03;;;101.75;;
70416;SDS011;57839;51.332;12.410;2023-12-20T08:56:35;98.72;;;93.88;;
70416;SDS011;57839;51.332;12.410;2023-12-20T08:59:01;95.78;;;91.57;;
70416;SDS011;57839;51.332;12.410;2023-12-20T09:01:26;87.32;;;83.13;;
70416;SDS011;57839;51.332;12.410;2023-12-20T09:03:52;101.68;;;97.07;;
70416;SDS011;57839;51.332;12.410;2023-12-20T09:06:17;153.70;;;146.73;;
70416;SDS011;57839;51.332;12.410;2023-12-20T09:08:43;125.63;;;120.03;;
70416;SDS011;57839;51.332;12.410;2023-12-20T09:11:09;126.13;;;120.50;;
70416;SDS011;57839;51.332;12.410;2023-12-20T09:13:35;86.97;;;82.72;;
70416;SDS011;57839;51.332;12.410;2023-12-20T09:16:02;122.38;;;116.65;;
70416;SDS011;57839;51.332;12.410;2023-12-20T09:18:28;83.93;;;79.95;;
70416;SDS011;57839;51.332;12.410;2023-12-20T09:20:54;203.55;;;194.07;;
70416;SDS011;57839;51.332;12.410;2023-12-20T09:23:20;107.70;;;102.78;;
70416;SDS011;57839;51.332;12.410;2023-12-20T09:25:46;106.15;;;101.32;;
70416;SDS011;57839;51.332;12.410;2023-12-20T09:28:11;100.53;;;96.15;;
70416;SDS011;57839;51.332;12.410;2023-12-20T09:30:37;68.75;;;65.85;;
70416;SDS011;57839;51.332;12.410;2023-12-20T09:33:05;103.70;;;99.00;;
70416;SDS011;57839;51.332;12.410;2023-12-20T09:35:32;136.52;;;129.05;;
70416;SDS011;57839;51.332;12.410;2023-12-20T09:37:58;134.15;;;127.30;;
70416;SDS011;57839;51.332;12.410;2023-12-20T09:40:24;107.68;;;102.68;;
70416;SDS011;57839;51.332;12.410;2023-12-20T09:42:57;158.23;;;149.98;;
70416;SDS011;57839;51.332;12.410;2023-12-20T09:45:28;120.15;;;114.32;;
70416;SDS011;57839;51.332;12.410;2023-12-20T09:47:55;130.75;;;124.63;;
70416;SDS011;57839;51.332;12.410;2023-12-20T09:50:23;115.55;;;109.68;;
70416;SDS011;57839;51.332;12.410;2023-12-20T09:52:50;83.57;;;79.75;;
70416;SDS011;57839;51.332;12.410;2023-12-20T09:55:20;184.60;;;173.98;;
70416;SDS011;57839;51.332;12.410;2023-12-20T09:57:47;152.35;;;144.50;;
70416;SDS011;57839;51.332;12.410;2023-12-20T10:00:13;81.95;;;77.57;;
70416;SDS011;57839;51.332;12.410;2023-12-20T10:02:42;97.50;;;93.00;;
70416;SDS011;57839;51.332;12.410;2023-12-20T10:05:20;97.57;;;93.13;;
70416;SDS011;57839;51.332;12.410;2023-12-20T10:07:58;71.07;;;67.50;;
70416;SDS011;57839;51.332;12.410;2023-12-20T10:10:25;86.95;;;82.72;;
70416;SDS011;57839;51.332;12.410;2023-12-20T10:13:07;111.35;;;105.75;;
70416;SDS011;57839;51.332;12.410;2023-12-20T10:15:35;106.03;;;100.70;;
70416;SDS011;57839;51.332;12.410;2023-12-20T10:18:02;94.05;;;89.50;;
70416;SDS011;57839;51.332;12.410;2023-12-20T10:20:29;71.90;;;68.45;;
70416;SDS011;57839;51.332;12.410;2023-12-20T10:22:58;70.40;;;66.90;;
70416;SDS011;57839;51.332;12.410;2023-12-20T10:25:24;107.78;;;102.75;;
70416;SDS011;57839;51.332;12.410;2023-12-20T10:28:08;113.80;;;108.38;;
70416;SDS011;57839;51.332;12.410;2023-12-20T10:30:35;107.28;;;102.25;;
70416;SDS011;57839;51.332;12.410;2023-12-20T10:33:01;91.65;;;87.07;;
70416;SDS011;57839;51.332;12.410;2023-12-20T10:35:27;84.97;;;81.07;;
70416;SDS011;57839;51.332;12.410;2023-12-20T10:37:55;106.35;;;101.43;;
70416;SDS011;57839;51.332;12.410;2023-12-20T10:40:21;90.00;;;85.78;;
70416;SDS011;57839;51.332;12.410;2023-12-20T10:42:48;74.10;;;70.78;;
70416;SDS011;57839;51.332;12.410;2023-12-20T10:45:16;95.00;;;91.00;;
70416;SDS011;57839;51.332;12.410;2023-12-20T10:47:44;114.22;;;109.32;;
70416;SDS011;57839;51.332;12.410;2023-12-20T10:50:12;105.43;;;100.72;;
70416;SDS011;57839;51.332;12.410;2023-12-20T10:52:38;108.28;;;103.38;;
70416;SDS011;57839;51.332;12.410;2023-12-20T10:55:04;133.95;;;127.35;;
70416;SDS011;57839;51.332;12.410;2023-12-20T10:57:30;97.18;;;92.95;;
70416;SDS011;57839;51.332;12.410;2023-12-20T10:59:56;100.70;;;95.93;;
70416;SDS011;57839;51.332;12.410;2023-12-20T11:02:30;96.60;;;92.43;;
70416;SDS011;57839;51.332;12.410;2023-12-20T11:05:06;93.72;;;89.20;;
70416;SDS011;57839;51.332;12.410;2023-12-20T11:08:09;160.13;;;151.32;;
70416;SDS011;57839;51.332;12.410;2023-12-20T11:13:31;103.00;;;98.15;;
70416;SDS011;57839;51.332;12.410;2023-12-20T11:16:01;87.22;;;83.43;;
70416;SDS011;57839;51.332;12.410;2023-12-20T11:18:31;106.47;;;101.93;;
70416;SDS011;57839;51.332;12.410;2023-12-20T11:21:00;101.97;;;97.22;;
70416;SDS011;57839;51.332;12.410;2023-12-20T11:23:29;160.63;;;152.50;;
70416;SDS011;57839;51.332;12.410;2023-12-20T11:25:56;120.57;;;115.15;;
70416;SDS011;57839;51.332;12.410;2023-12-20T11:28:26;102.43;;;97.68;;
70416;SDS011;57839;51.332;12.410;2023-12-20T11:30:58;96.50;;;92.00;;
70416;SDS011;57839;51.332;12.410;2023-12-20T11:33:29;123.80;;;117.97;;
70416;SDS011;57839;51.332;12.410;2023-12-20T11:35:57;120.88;;;115.22;;
70416;SDS011;57839;51.332;12.410;2023-12-20T11:38:24;113.72;;;108.50;;
70416;SDS011;57839;51.332;12.410;2023-12-20T11:40:51;148.38;;;141.43;;
70416;SDS011;57839;51.332;12.410;2023-12-20T11:43:32;122.97;;;117.40;;
70416;SDS011;57839;51.332;12.410;2023-12-20T11:46:04;141.10;;;134.57;;
70416;SDS011;57839;51.332;12.410;2023-12-20T11:48:31;137.63;;;130.75;;
70416;SDS011;57839;51.332;12.410;2023-12-20T11:50:57;115.20;;;110.00;;
70416;SDS011;57839;51.332;12.410;2023-12-20T11:53:23;216.43;;;204.13;;
70416;SDS011;57839;51.332;12.410;2023-12-20T11:55:49;119.45;;;113.18;;
70416;SDS011;57839;51.332;12.410;2023-12-20T11:58:15;161.63;;;153.45;;
70416;SDS011;57839;51.332;12.410;2023-12-20T12:00:42;131.50;;;125.15;;
70416;SDS011;57839;51.332;12.410;2023-12-20T12:03:14;123.32;;;117.18;;
70416;SDS011;57839;51.332;12.410;2023-12-20T12:05:41;90.07;;;85.75;;
70416;SDS011;57839;51.332;12.410;2023-12-20T12:08:06;98.13;;;93.50;;
70416;SDS011;57839;51.332;12.410;2023-12-20T12:10:33;138.77;;;131.93;;
70416;SDS011;57839;51.332;12.410;2023-12-20T12:12:59;106.65;;;100.88;;
70416;SDS011;57839;51.332;12.410;2023-12-20T12:15:26;83.35;;;79.20;;
70416;SDS011;57839;51.332;12.410;2023-12-20T12:17:55;105.57;;;100.25;;
70416;SDS011;57839;51.332;12.410;2023-12-20T12:20:21;157.77;;;150.10;;
70416;SDS011;57839;51.332;12.410;2023-12-20T12:23:01;142.93;;;135.68;;
70416;SDS011;57839;51.332;12.410;2023-12-20T12:25:32;100.05;;;95.15;;
70416;SDS011;57839;51.332;12.410;2023-12-20T12:27:59;96.32;;;91.40;;
70416;SDS011;57839;51.332;12.410;2023-12-20T12:30:26;81.07;;;76.93;;
70416;SDS011;57839;51.332;12.410;2023-12-20T12:32:52;188.45;;;177.88;;
70416;SDS011;57839;51.332;12.410;2023-12-20T12:35:18;116.13;;;110.28;;
70416;SDS011;57839;51.332;12.410;2023-12-20T12:37:45;116.22;;;110.60;;
70416;SDS011;57839;51.332;12.410;2023-12-20T12:40:11;96.53;;;92.05;;
70416;SDS011;57839;51.332;12.410;2023-12-20T12:42:39;73.53;;;69.90;;
70416;SDS011;57839;51.332;12.410;2023-12-20T12:45:06;109.20;;;103.80;;
70416;SDS011;57839;51.332;12.410;2023-12-20T12:47:32;190.38;;;181.00;;
70416;SDS011;57839;51.332;12.410;2023-12-20T12:49:58;83.78;;;79.88;;
70416;SDS011;57839;51.332;12.410;2023-12-20T12:52:24;102.63;;;97.72;;
70416;SDS011;57839;51.332;12.410;2023-12-20T12:54:50;120.65;;;114.78;;
70416;SDS011;57839;51.332;12.410;2023-12-20T12:57:15;92.35;;;87.50;;
70416;SDS011;57839;51.332;12.410;2023-12-20T12:59:42;91.47;;;87.22;;
70416;SDS011;57839;51.332;12.410;2023-12-20T13:02:10;102.95;;;97.53;;
70416;SDS011;57839;51.332;12.410;2023-12-20T13:04:36;87.03;;;82.68;;
70416;SDS011;57839;51.332;12.410;2023-12-20T13:07:02;67.20;;;63.85;;
70416;SDS011;57839;51.332;12.410;2023-12-20T13:09:27;94.50;;;90.03;;
70416;SDS011;57839;51.332;12.410;2023-12-20T13:11:53;99.45;;;94.65;;
70416;SDS011;57839;51.332;12.410;2023-12-20T13:14:19;128.63;;;122.60;;
70416;SDS011;57839;51.332;12.410;2023-12-20T13:16:44;149.93;;;142.70;;
70416;SDS011;57839;51.332;12.410;2023-12-20T13:19:11;101.30;;;96.43;;
70416;SDS011;57839;51.332;12.410;2023-12-20T13:21:36;112.13;;;107.15;;
70416;SDS011;57839;51.332;12.410;2023-12-20T13:24:02;136.38;;;129.82;;
70416;SDS011;57839;51.332;12.410;2023-12-20T13:26:28;112.47;;;107.40;;
70416;SDS011;57839;51.332;12.410;2023-12-20T13:28:54;156.65;;;149.57;;
70416;SDS011;57839;51.332;12.410;2023-12-20T13:31:20;142.23;;;135.48;;
70416;SDS011;57839;51.332;12.410;2023-12-20T13:33:46;105.68;;;100.93;;
70416;SDS011;57839;51.332;12.410;2023-12-20T13:36:12;132.32;;;126.45;;
70416;SDS011;57839;51.332;12.410;2023-12-20T13:38:38;127.30;;;121.70;;
70416;SDS011;57839;51.332;12.410;2023-12-20T13:41:04;132.90;;;126.85;;
70416;SDS011;57839;51.332;12.410;2023-12-20T13:43:33;109.03;;;104.30;;
70416;SDS011;57839;51.332;12.410;2023-12-20T13:46:00;125.82;;;120.53;;
70416;SDS011;57839;51.332;12.410;2023-12-20T13:48:26;117.15;;;112.00;;